Time;durP1;ratioP1;P1;durP2;ratioP2;P2;SDS_P1;SDS_P2;PMS_P1;PMS_P2;Temp;Humidity;BMP_temperature;BMP_pressure;BME280_temperature;BME280_humidity;BME280_pressure;Samples;Min_cycle;Max_cycle;Signal;HPM_P1;HPM_P2
2022/11/22 00:00:26;;;;;;;11.40;3.20;;;;;;;;;;5021434;28;20239;-64
2022/11/22 00:02:51;;;;;;;11.80;3.47;;;;;;;;;;5022182;28;20224;-65
2022/11/22 00:05:17;;;;;;;10.88;3.47;;;;;;;;;;5020665;28;20262;-65
2022/11/22 00:07:42;;;;;;;10.38;3.15;;;;;;;;;;5021372;28;20703;-64
2022/11/22 00:10:08;;;;;;;8.43;2.55;;;;;;;;;;5021876;28;20222;-65
2022/11/22 00:12:33;;;;;;;7.40;3.20;;;;;;;;;;5021285;28;20634;-64
2022/11/22 00:14:58;;;;;;;9.13;3.20;;;;;;;;;;5016830;28;20698;-64
2022/11/22 00:17:23;;;;;;;12.37;3.57;;;;;;;;;;5013356;28;20212;-64
2022/11/22 00:19:49;;;;;;;10.15;3.28;;;;;;;;;;5015648;28;20230;-65
2022/11/22 00:22:14;;;;;;;10.80;3.10;;;;;;;;;;5022859;28;20262;-64
2022/11/22 00:24:39;;;;;;;9.00;3.25;;;;;;;;;;5025997;28;20209;-65
2022/11/22 00:27:05;;;;;;;8.93;3.30;;;;;;;;;;5024814;28;20281;-64
2022/11/22 00:29:30;;;;;;;9.63;3.20;;;;;;;;;;5026265;28;20629;-65
2022/11/22 00:31:55;;;;;;;10.43;3.20;;;;;;;;;;5025960;28;20222;-65
2022/11/22 00:34:20;;;;;;;11.10;3.30;;;;;;;;;;5024913;28;20247;-65
2022/11/22 00:36:46;;;;;;;9.43;3.70;;;;;;;;;;5022981;28;20211;-65
2022/11/22 00:39:11;;;;;;;12.13;3.20;;;;;;;;;;5017282;28;21012;-65
2022/11/22 00:41:36;;;;;;;8.43;3.35;;;;;;;;;;5017213;28;20262;-64
2022/11/22 00:44:01;;;;;;;12.30;3.60;;;;;;;;;;5019651;28;20649;-65
2022/11/22 00:46:27;;;;;;;10.35;3.20;;;;;;;;;;5025333;28;20649;-64
2022/11/22 00:48:52;;;;;;;9.45;3.40;;;;;;;;;;5025256;28;20219;-64
2022/11/22 00:51:17;;;;;;;12.43;3.97;;;;;;;;;;5025197;28;20219;-64
2022/11/22 00:53:43;;;;;;;7.60;3.50;;;;;;;;;;5024395;28;20586;-64
2022/11/22 00:56:08;;;;;;;12.27;4.05;;;;;;;;;;5024923;28;20557;-64
2022/11/22 00:58:33;;;;;;;9.15;3.85;;;;;;;;;;5025323;28;20223;-64
2022/11/22 01:00:58;;;;;;;10.87;4.30;;;;;;;;;;5017800;28;20666;-64
2022/11/22 01:03:24;;;;;;;10.70;4.00;;;;;;;;;;5016771;28;20501;-64
2022/11/22 01:05:49;;;;;;;10.43;4.43;;;;;;;;;;5017707;28;20961;-64
2022/11/22 01:08:14;;;;;;;11.10;4.43;;;;;;;;;;5022908;28;20647;-64
2022/11/22 01:10:39;;;;;;;9.45;3.88;;;;;;;;;;5025750;28;21225;-64
2022/11/22 01:13:05;;;;;;;10.68;4.28;;;;;;;;;;5024668;28;20248;-64
2022/11/22 01:15:30;;;;;;;10.32;4.35;;;;;;;;;;5024545;28;21063;-64
2022/11/22 01:17:55;;;;;;;11.20;4.53;;;;;;;;;;5025119;28;20223;-64
2022/11/22 01:20:21;;;;;;;14.02;4.57;;;;;;;;;;5024423;28;20317;-64
2022/11/22 01:22:47;;;;;;;9.05;4.43;;;;;;;;;;5019182;28;20222;-64
2022/11/22 01:25:12;;;;;;;15.25;4.50;;;;;;;;;;5016118;28;20223;-64
2022/11/22 01:27:37;;;;;;;9.18;4.15;;;;;;;;;;5017217;28;20264;-64
2022/11/22 01:30:03;;;;;;;11.20;4.45;;;;;;;;;;5020313;28;20235;-64
2022/11/22 01:32:28;;;;;;;12.75;4.78;;;;;;;;;;5031149;28;20215;-64
2022/11/22 01:34:53;;;;;;;15.13;4.93;;;;;;;;;;5034135;28;20220;-64
2022/11/22 01:37:19;;;;;;;12.50;4.50;;;;;;;;;;5032798;28;20694;-64
2022/11/22 01:39:44;;;;;;;9.82;4.57;;;;;;;;;;5034594;28;20319;-64
2022/11/22 01:42:09;;;;;;;12.93;4.80;;;;;;;;;;5033947;28;20231;-64
2022/11/22 01:44:35;;;;;;;11.25;5.28;;;;;;;;;;5033953;28;20524;-64
2022/11/22 01:47:12;;;;;;;12.30;5.40;;;;;;;;;;5034373;28;20255;-64
2022/11/22 01:49:38;;;;;;;11.88;4.88;;;;;;;;;;5012481;28;20208;-64
2022/11/22 01:52:05;;;;;;;10.27;4.72;;;;;;;;;;5032514;28;20298;-64
2022/11/22 01:54:31;;;;;;;12.60;5.35;;;;;;;;;;5034010;28;20219;-64
2022/11/22 01:56:57;;;;;;;10.52;4.38;;;;;;;;;;5016973;28;20281;-64
2022/11/22 01:59:23;;;;;;;11.37;4.60;;;;;;;;;;5052871;28;20213;-64
2022/11/22 02:01:48;;;;;;;8.05;4.22;;;;;;;;;;5054011;28;20674;-64
2022/11/22 02:04:14;;;;;;;12.48;4.38;;;;;;;;;;5043114;28;20297;-64
2022/11/22 02:06:42;;;;;;;15.10;4.88;;;;;;;;;;5033939;28;20230;-64
2022/11/22 02:09:10;;;;;;;10.73;4.90;;;;;;;;;;5032160;28;20215;-64
2022/11/22 02:11:36;;;;;;;15.90;4.97;;;;;;;;;;5033315;28;20706;-64
2022/11/22 02:14:01;;;;;;;11.20;4.40;;;;;;;;;;5033685;28;20227;-64
2022/11/22 02:16:26;;;;;;;11.52;4.93;;;;;;;;;;5017706;28;20606;-64
2022/11/22 02:18:51;;;;;;;10.20;4.32;;;;;;;;;;5013380;28;20220;-64
2022/11/22 02:21:17;;;;;;;12.45;4.63;;;;;;;;;;5012425;28;20220;-64
2022/11/22 02:23:45;;;;;;;10.85;4.50;;;;;;;;;;5012633;28;20263;-64
2022/11/22 02:26:10;;;;;;;11.73;4.67;;;;;;;;;;5012714;28;20271;-64
2022/11/22 02:28:36;;;;;;;9.23;4.10;;;;;;;;;;4996691;28;20216;-64
2022/11/22 02:31:01;;;;;;;10.70;3.97;;;;;;;;;;5012075;28;20675;-64
2022/11/22 02:33:26;;;;;;;8.52;3.90;;;;;;;;;;5012863;28;20290;-64
2022/11/22 02:35:51;;;;;;;8.65;3.50;;;;;;;;;;5013694;28;20219;-64
2022/11/22 02:38:19;;;;;;;9.20;3.85;;;;;;;;;;5012961;28;20267;-64
2022/11/22 02:40:48;;;;;;;10.10;4.25;;;;;;;;;;5012665;28;20680;-64
2022/11/22 02:43:16;;;;;;;10.57;4.40;;;;;;;;;;5011150;28;20228;-64
2022/11/22 02:45:41;;;;;;;10.40;3.63;;;;;;;;;;5013634;28;20227;-64
2022/11/22 02:48:07;;;;;;;9.75;4.30;;;;;;;;;;5012326;28;20672;-64
2022/11/22 02:50:33;;;;;;;10.95;4.00;;;;;;;;;;5013706;28;20262;-64
2022/11/22 02:52:58;;;;;;;9.65;3.90;;;;;;;;;;5013252;28;20301;-64
2022/11/22 02:55:23;;;;;;;7.75;3.75;;;;;;;;;;5012099;28;20209;-64
2022/11/22 02:57:48;;;;;;;12.40;4.03;;;;;;;;;;5013358;28;20330;-64
2022/11/22 03:00:14;;;;;;;8.15;3.53;;;;;;;;;;5012134;28;20224;-64
2022/11/22 03:02:39;;;;;;;9.48;4.22;;;;;;;;;;5013386;28;20672;-64
2022/11/22 03:05:04;;;;;;;12.45;4.03;;;;;;;;;;5029228;28;20817;-64
2022/11/22 03:07:30;;;;;;;9.23;4.13;;;;;;;;;;5032167;28;20214;-64
2022/11/22 03:09:55;;;;;;;10.88;4.10;;;;;;;;;;5032715;28;20212;-64
2022/11/22 03:12:20;;;;;;;12.55;3.72;;;;;;;;;;5032282;28;20217;-64
2022/11/22 03:14:45;;;;;;;11.30;3.70;;;;;;;;;;5031835;28;20584;-64
2022/11/22 03:17:13;;;;;;;11.65;3.72;;;;;;;;;;5032359;28;20239;-64
2022/11/22 03:19:38;;;;;;;12.55;3.55;;;;;;;;;;5032827;28;20219;-64
2022/11/22 03:22:03;;;;;;;9.93;3.60;;;;;;;;;;5031691;28;20216;-64
2022/11/22 03:24:28;;;;;;;11.25;3.85;;;;;;;;;;5032346;28;20220;-64
2022/11/22 03:26:54;;;;;;;15.98;3.58;;;;;;;;;;5032723;28;20222;-64
2022/11/22 03:29:19;;;;;;;14.57;4.03;;;;;;;;;;5031498;28;20216;-64
2022/11/22 03:31:44;;;;;;;8.63;3.27;;;;;;;;;;5032469;28;20207;-64
2022/11/22 03:34:11;;;;;;;12.18;3.45;;;;;;;;;;5032133;28;20227;-64
2022/11/22 03:36:36;;;;;;;11.25;3.58;;;;;;;;;;5031878;28;20250;-64
2022/11/22 03:39:01;;;;;;;14.02;3.60;;;;;;;;;;5031803;28;20212;-64
2022/11/22 03:41:26;;;;;;;13.20;4.03;;;;;;;;;;5032361;28;20211;-64
2022/11/22 03:43:52;;;;;;;10.82;3.38;;;;;;;;;;5031405;28;20269;-64
2022/11/22 03:46:18;;;;;;;12.38;3.22;;;;;;;;;;5031695;28;20203;-64
2022/11/22 03:48:43;;;;;;;13.50;3.10;;;;;;;;;;5032424;28;20295;-64
2022/11/22 03:51:09;;;;;;;12.27;3.03;;;;;;;;;;5031206;28;20715;-64
2022/11/22 03:53:34;;;;;;;9.82;2.80;;;;;;;;;;5032205;28;20235;-64
2022/11/22 03:56:00;;;;;;;10.87;2.60;;;;;;;;;;5032025;28;20211;-64
2022/11/22 03:58:25;;;;;;;14.00;2.63;;;;;;;;;;5031057;28;20576;-64
2022/11/22 04:00:50;;;;;;;14.88;4.15;;;;;;;;;;5032262;28;20589;-64
2022/11/22 04:03:15;;;;;;;14.32;2.72;;;;;;;;;;5031650;28;20215;-64
2022/11/22 04:05:41;;;;;;;11.80;2.60;;;;;;;;;;5031583;28;20667;-64
2022/11/22 04:08:06;;;;;;;11.63;2.53;;;;;;;;;;5031717;28;20208;-64
2022/11/22 04:10:31;;;;;;;14.55;2.70;;;;;;;;;;5031252;28;20663;-64
2022/11/22 04:12:57;;;;;;;10.95;2.30;;;;;;;;;;5032076;28;20303;-64
2022/11/22 04:15:22;;;;;;;12.33;2.80;;;;;;;;;;5031625;28;20231;-64
2022/11/22 04:17:47;;;;;;;11.07;2.85;;;;;;;;;;5031415;28;20212;-64
2022/11/22 04:22:58;;;;;;;12.27;2.30;;;;;;;;;;5032175;28;20218;-64
2022/11/22 04:25:24;;;;;;;10.05;2.75;;;;;;;;;;5030667;28;20239;-64
2022/11/22 04:27:49;;;;;;;14.32;2.72;;;;;;;;;;5030915;28;20215;-64
2022/11/22 04:30:14;;;;;;;11.18;2.20;;;;;;;;;;5031592;28;20572;-64
2022/11/22 04:32:46;;;;;;;9.17;2.40;;;;;;;;;;5031180;28;20265;-64
2022/11/22 04:35:12;;;;;;;9.82;2.05;;;;;;;;;;5031484;28;20232;-64
2022/11/22 04:37:37;;;;;;;11.88;2.00;;;;;;;;;;5030637;28;20212;-64
2022/11/22 04:40:03;;;;;;;11.33;2.10;;;;;;;;;;5030727;28;20640;-64
2022/11/22 04:45:12;;;;;;;14.40;2.30;;;;;;;;;;5011932;28;20638;-64
2022/11/22 04:53:05;;;;;;;10.50;2.30;;;;;;;;;;5023505;28;20274;-64
2022/11/22 04:55:30;;;;;;;9.48;2.05;;;;;;;;;;5031740;28;20236;-64
2022/11/22 04:57:55;;;;;;;12.27;2.40;;;;;;;;;;5031374;28;20314;-64
2022/11/22 05:00:20;;;;;;;11.77;2.10;;;;;;;;;;5030698;28;20216;-64
2022/11/22 05:02:45;;;;;;;14.53;2.30;;;;;;;;;;5031689;28;20220;-64
2022/11/22 05:05:11;;;;;;;11.18;2.15;;;;;;;;;;5027480;28;20228;-64
2022/11/22 05:07:36;;;;;;;12.10;2.20;;;;;;;;;;5019659;28;20588;-64
2022/11/22 05:10:02;;;;;;;12.67;2.20;;;;;;;;;;5024895;28;20273;-64
2022/11/22 05:12:27;;;;;;;10.23;1.98;;;;;;;;;;5024787;28;20247;-64
2022/11/22 05:14:52;;;;;;;12.90;2.40;;;;;;;;;;5024063;28;20816;-64
2022/11/22 05:17:17;;;;;;;10.50;2.00;;;;;;;;;;5024431;28;20306;-64
2022/11/22 05:19:43;;;;;;;13.25;2.20;;;;;;;;;;5020419;28;20425;-64
2022/11/22 05:22:08;;;;;;;13.93;2.42;;;;;;;;;;5011117;28;20227;-64
2022/11/22 05:24:33;;;;;;;10.80;2.10;;;;;;;;;;5016891;28;20906;-64
2022/11/22 05:27:00;;;;;;;11.33;2.37;;;;;;;;;;5021699;28;20294;-64
2022/11/22 05:29:25;;;;;;;14.50;2.58;;;;;;;;;;5023657;28;20208;-64
2022/11/22 05:31:50;;;;;;;13.85;2.60;;;;;;;;;;5024982;28;20238;-64
2022/11/22 05:34:16;;;;;;;11.07;2.22;;;;;;;;;;5024121;28;20231;-64
2022/11/22 05:36:41;;;;;;;14.15;2.60;;;;;;;;;;5023942;28;20632;-64
2022/11/22 05:39:07;;;;;;;12.48;2.30;;;;;;;;;;5023770;28;20220;-65
2022/11/22 05:41:32;;;;;;;13.73;2.90;;;;;;;;;;5022436;28;21398;-64
2022/11/22 05:43:57;;;;;;;11.85;3.13;;;;;;;;;;5016550;28;20299;-64
2022/11/22 05:46:23;;;;;;;10.10;2.33;;;;;;;;;;5015004;28;20215;-64
2022/11/22 05:48:48;;;;;;;12.33;2.17;;;;;;;;;;5016817;28;20208;-64
2022/11/22 05:51:14;;;;;;;12.83;2.87;;;;;;;;;;5021024;28;20230;-64
2022/11/22 05:53:40;;;;;;;14.03;2.10;;;;;;;;;;5024553;28;20220;-64
2022/11/22 05:56:05;;;;;;;10.80;2.20;;;;;;;;;;5021980;28;20560;-64
2022/11/22 05:58:31;;;;;;;11.68;2.33;;;;;;;;;;5024341;28;20592;-64
2022/11/22 06:01:00;;;;;;;10.05;1.77;;;;;;;;;;5024086;28;20208;-64
2022/11/22 06:03:26;;;;;;;9.50;2.17;;;;;;;;;;5022436;28;20698;-64
2022/11/22 06:05:51;;;;;;;9.57;2.20;;;;;;;;;;5030488;28;20730;-64
2022/11/22 06:08:16;;;;;;;12.87;2.20;;;;;;;;;;5033140;28;20211;-64
2022/11/22 06:10:42;;;;;;;12.27;2.40;;;;;;;;;;5033301;28;20341;-65
2022/11/22 06:13:07;;;;;;;17.23;2.77;;;;;;;;;;5033078;28;20215;-63
2022/11/22 06:15:32;;;;;;;17.00;2.53;;;;;;;;;;5021936;28;20800;-62
2022/11/22 06:17:57;;;;;;;11.20;2.23;;;;;;;;;;5024104;28;20277;-64
2022/11/22 06:20:23;;;;;;;14.07;2.73;;;;;;;;;;5029131;28;21010;-62
2022/11/22 06:22:48;;;;;;;10.48;2.10;;;;;;;;;;5029989;28;20306;-62
2022/11/22 06:25:14;;;;;;;11.68;2.60;;;;;;;;;;5039738;28;20211;-63
2022/11/22 06:27:39;;;;;;;12.53;3.63;;;;;;;;;;5033364;28;20216;-63
2022/11/22 06:30:05;;;;;;;12.10;2.90;;;;;;;;;;5038406;28;20251;-63
2022/11/22 06:32:32;;;;;;;18.97;2.33;;;;;;;;;;5041811;28;20203;-63
2022/11/22 06:34:57;;;;;;;14.17;2.60;;;;;;;;;;5039883;28;20224;-63
2022/11/22 06:37:23;;;;;;;12.40;2.67;;;;;;;;;;5032363;28;20261;-63
2022/11/22 06:39:49;;;;;;;15.02;2.50;;;;;;;;;;5031825;28;20636;-63
2022/11/22 06:42:14;;;;;;;14.20;2.50;;;;;;;;;;5031964;28;20758;-63
2022/11/22 06:44:39;;;;;;;14.53;2.60;;;;;;;;;;5032430;28;20211;-63
2022/11/22 06:47:04;;;;;;;15.60;3.13;;;;;;;;;;5031471;28;20231;-63
2022/11/22 06:49:30;;;;;;;14.40;3.10;;;;;;;;;;5032169;28;20208;-63
2022/11/22 06:51:55;;;;;;;14.43;3.40;;;;;;;;;;5032788;28;20243;-63
2022/11/22 06:54:20;;;;;;;14.97;2.90;;;;;;;;;;5031383;28;20342;-63
2022/11/22 06:56:45;;;;;;;11.87;3.10;;;;;;;;;;5032225;28;20258;-63
2022/11/22 06:59:11;;;;;;;10.33;2.70;;;;;;;;;;5030597;28;20679;-63
2022/11/22 07:01:37;;;;;;;10.87;2.50;;;;;;;;;;5031463;28;20214;-63
2022/11/22 07:04:02;;;;;;;11.50;3.00;;;;;;;;;;5031789;28;20227;-63
2022/11/22 07:06:28;;;;;;;14.80;3.10;;;;;;;;;;5030394;28;20212;-63
2022/11/22 07:08:54;;;;;;;11.60;3.10;;;;;;;;;;5030298;28;20219;-63
2022/11/22 07:11:20;;;;;;;13.40;2.80;;;;;;;;;;5041298;28;20211;-63
2022/11/22 07:13:45;;;;;;;12.70;2.80;;;;;;;;;;5034766;28;20228;-63
2022/11/22 07:16:12;;;;;;;14.33;3.30;;;;;;;;;;5032727;28;20925;-63
2022/11/22 07:18:38;;;;;;;13.97;3.43;;;;;;;;;;5032584;28;20294;-62
2022/11/22 07:21:04;;;;;;;11.23;3.30;;;;;;;;;;5031256;28;20299;-63
2022/11/22 07:23:29;;;;;;;14.17;3.40;;;;;;;;;;5031678;28;20277;-64
2022/11/22 07:25:54;;;;;;;32.53;16.37;;;;;;;;;;5031829;28;20640;-62
2022/11/22 07:28:19;;;;;;;12.87;3.70;;;;;;;;;;5028286;28;20216;-63
2022/11/22 07:30:45;;;;;;;19.17;5.17;;;;;;;;;;5032274;28;20642;-63
2022/11/22 07:33:10;;;;;;;11.33;3.50;;;;;;;;;;5031775;28;20606;-63
2022/11/22 07:35:35;;;;;;;12.93;2.77;;;;;;;;;;5031474;28;20290;-63
2022/11/22 07:38:00;;;;;;;10.27;3.33;;;;;;;;;;5031890;28;20208;-63
2022/11/22 07:40:26;;;;;;;13.50;3.63;;;;;;;;;;5039690;28;20213;-62
2022/11/22 07:42:51;;;;;;;13.63;3.43;;;;;;;;;;5051790;28;20215;-64
2022/11/22 07:45:16;;;;;;;12.80;3.10;;;;;;;;;;5051015;28;20210;-62
2022/11/22 07:47:42;;;;;;;9.40;2.90;;;;;;;;;;5032339;28;20215;-62
2022/11/22 07:50:07;;;;;;;10.37;3.43;;;;;;;;;;5030892;28;20210;-63
2022/11/22 07:52:33;;;;;;;12.27;2.43;;;;;;;;;;5032274;28;20231;-63
2022/11/22 07:54:58;;;;;;;11.00;3.07;;;;;;;;;;5032242;28;20699;-62
2022/11/22 07:57:23;;;;;;;11.30;2.93;;;;;;;;;;5031011;28;20219;-62
2022/11/22 07:59:48;;;;;;;11.13;2.40;;;;;;;;;;5032126;28;20215;-62
2022/11/22 08:02:14;;;;;;;11.10;2.60;;;;;;;;;;5031568;28;20223;-63
2022/11/22 08:04:39;;;;;;;13.73;2.73;;;;;;;;;;5030998;28;20307;-62
2022/11/22 08:07:04;;;;;;;8.77;2.40;;;;;;;;;;5031625;28;20243;-63
2022/11/22 08:09:29;;;;;;;13.00;2.90;;;;;;;;;;5032236;28;20203;-62
2022/11/22 08:11:55;;;;;;;12.43;2.73;;;;;;;;;;5031456;28;20215;-62
2022/11/22 08:14:21;;;;;;;11.00;2.50;;;;;;;;;;5031556;28;20231;-62
2022/11/22 08:16:46;;;;;;;12.03;2.87;;;;;;;;;;5029134;28;20215;-62
2022/11/22 08:19:16;;;;;;;16.80;2.97;;;;;;;;;;5031128;28;20254;-63
2022/11/22 08:21:41;;;;;;;14.90;5.47;;;;;;;;;;5032114;28;20212;-62
2022/11/22 08:24:06;;;;;;;11.80;3.17;;;;;;;;;;5030756;28;20212;-62
2022/11/22 08:26:32;;;;;;;12.07;2.60;;;;;;;;;;5032159;28;20214;-62
2022/11/22 08:28:57;;;;;;;12.50;2.70;;;;;;;;;;5032020;28;20306;-63
2022/11/22 08:31:23;;;;;;;13.33;3.03;;;;;;;;;;5030374;28;20222;-62
2022/11/22 08:33:51;;;;;;;13.97;2.73;;;;;;;;;;5032594;28;20227;-62
2022/11/22 08:36:16;;;;;;;10.00;2.30;;;;;;;;;;5050816;28;20248;-62
2022/11/22 08:38:41;;;;;;;13.37;2.50;;;;;;;;;;5051097;28;20207;-63
2022/11/22 08:41:06;;;;;;;14.00;2.73;;;;;;;;;;5035102;28;20323;-63
2022/11/22 08:43:32;;;;;;;12.47;2.70;;;;;;;;;;5035709;28;20207;-63
2022/11/22 08:45:57;;;;;;;14.40;2.40;;;;;;;;;;5034524;28;20216;-62
2022/11/22 08:48:24;;;;;;;11.43;2.30;;;;;;;;;;5034976;28;20277;-62
2022/11/22 08:50:50;;;;;;;17.40;2.70;;;;;;;;;;5035288;28;20207;-62
2022/11/22 08:53:15;;;;;;;12.87;2.30;;;;;;;;;;5034258;28;20220;-62
2022/11/22 08:55:41;;;;;;;10.63;2.23;;;;;;;;;;5035499;28;20737;-62
2022/11/22 08:58:06;;;;;;;10.33;2.10;;;;;;;;;;5034922;28;20212;-63
2022/11/22 09:00:31;;;;;;;11.97;2.30;;;;;;;;;;5034637;28;20204;-62
2022/11/22 09:02:57;;;;;;;10.80;1.90;;;;;;;;;;5034433;28;20223;-62
2022/11/22 09:05:22;;;;;;;14.07;2.67;;;;;;;;;;5034239;28;20251;-62
2022/11/22 09:07:47;;;;;;;10.60;1.97;;;;;;;;;;5034343;28;20258;-63
2022/11/22 09:10:12;;;;;;;11.37;1.90;;;;;;;;;;5034552;28;20238;-62
2022/11/22 09:12:41;;;;;;;12.03;1.83;;;;;;;;;;5035087;28;20227;-63
2022/11/22 09:15:06;;;;;;;11.17;1.77;;;;;;;;;;5016038;28;20226;-63
2022/11/22 09:17:32;;;;;;;9.00;1.93;;;;;;;;;;5034251;28;20295;-63
2022/11/22 09:19:57;;;;;;;9.57;1.80;;;;;;;;;;5033705;28;20246;-62
2022/11/22 09:22:22;;;;;;;13.57;2.00;;;;;;;;;;5034318;28;20314;-62
2022/11/22 09:24:47;;;;;;;12.40;2.43;;;;;;;;;;5034955;28;20216;-62
2022/11/22 09:27:13;;;;;;;10.53;1.90;;;;;;;;;;5033486;28;20246;-63
2022/11/22 09:29:38;;;;;;;12.73;2.20;;;;;;;;;;5034765;28;20219;-62
2022/11/22 09:32:04;;;;;;;13.70;2.60;;;;;;;;;;5033934;28;20685;-63
2022/11/22 09:34:30;;;;;;;8.93;2.07;;;;;;;;;;5015675;28;20231;-62
2022/11/22 09:36:55;;;;;;;10.57;1.95;;;;;;;;;;5034216;28;20196;-62
2022/11/22 09:39:20;;;;;;;10.23;2.00;;;;;;;;;;5033491;28;20652;-63
2022/11/22 09:41:51;;;;;;;11.43;1.97;;;;;;;;;;5033281;28;20214;-62
2022/11/22 09:44:27;;;;;;;9.73;1.93;;;;;;;;;;5032945;28;20223;-63
2022/11/22 09:46:55;;;;;;;7.57;1.87;;;;;;;;;;5032210;28;20695;-62
2022/11/22 09:49:28;;;;;;;8.80;1.73;;;;;;;;;;5032532;28;20632;-63
2022/11/22 09:51:57;;;;;;;7.47;1.90;;;;;;;;;;5034040;28;20211;-62
2022/11/22 09:54:23;;;;;;;11.97;2.20;;;;;;;;;;5033744;28;20589;-62
2022/11/22 09:56:48;;;;;;;10.77;2.05;;;;;;;;;;5031778;28;20211;-62
2022/11/22 09:59:15;;;;;;;7.00;1.70;;;;;;;;;;5032123;28;20683;-62
2022/11/22 10:01:42;;;;;;;8.23;1.67;;;;;;;;;;5034231;28;20306;-62
2022/11/22 10:04:16;;;;;;;6.88;1.50;;;;;;;;;;5032241;28;20319;-62
2022/11/22 10:06:42;;;;;;;8.83;1.90;;;;;;;;;;5034212;28;20211;-62
2022/11/22 10:09:17;;;;;;;8.73;2.27;;;;;;;;;;5031951;28;20222;-62
2022/11/22 10:11:53;;;;;;;9.27;1.90;;;;;;;;;;5033971;28;20212;-62
2022/11/22 10:14:37;;;;;;;10.23;2.07;;;;;;;;;;5032353;28;20306;-62
2022/11/22 10:17:08;;;;;;;8.53;1.87;;;;;;;;;;5023626;28;20212;-62
2022/11/22 10:19:34;;;;;;;11.40;1.93;;;;;;;;;;5032178;28;20207;-63
2022/11/22 10:22:00;;;;;;;7.68;1.80;;;;;;;;;;5032687;28;20299;-62
2022/11/22 10:24:25;;;;;;;7.13;1.93;;;;;;;;;;5031502;28;20299;-62
2022/11/22 10:26:50;;;;;;;10.43;2.33;;;;;;;;;;5032538;28;20683;-62
2022/11/22 10:29:18;;;;;;;11.63;2.00;;;;;;;;;;5033422;28;20219;-62
2022/11/22 10:31:50;;;;;;;10.53;1.93;;;;;;;;;;5032982;28;20239;-62
2022/11/22 10:34:27;;;;;;;11.95;2.50;;;;;;;;;;5032606;28;20244;-63
2022/11/22 10:37:06;;;;;;;8.07;2.17;;;;;;;;;;5033579;28;20250;-61
2022/11/22 10:39:32;;;;;;;11.67;3.10;;;;;;;;;;5031932;28;20222;-62
2022/11/22 10:42:02;;;;;;;7.17;1.80;;;;;;;;;;5032933;28;20228;-62
2022/11/22 10:44:34;;;;;;;10.67;2.27;;;;;;;;;;5031256;28;20296;-62
2022/11/22 10:47:05;;;;;;;9.50;2.00;;;;;;;;;;5031855;28;20343;-63
2022/11/22 10:49:43;;;;;;;7.72;1.80;;;;;;;;;;5032366;28;20204;-62
2022/11/22 10:52:22;;;;;;;6.07;1.70;;;;;;;;;;5032126;28;20682;-63
2022/11/22 10:55:05;;;;;;;9.23;1.40;;;;;;;;;;5033151;28;20219;-62
2022/11/22 10:57:33;;;;;;;7.25;1.70;;;;;;;;;;5032887;28;20227;-63
2022/11/22 11:00:05;;;;;;;6.43;1.80;;;;;;;;;;5014884;28;20694;-63
2022/11/22 11:02:38;;;;;;;6.63;2.00;;;;;;;;;;5014398;28;20208;-62
2022/11/22 11:05:04;;;;;;;11.47;2.03;;;;;;;;;;5014037;28;20270;-62
2022/11/22 11:07:29;;;;;;;8.50;1.53;;;;;;;;;;5014490;28;20211;-62
2022/11/22 11:09:56;;;;;;;5.20;1.33;;;;;;;;;;5011106;28;20210;-62
2022/11/22 11:12:27;;;;;;;7.30;1.40;;;;;;;;;;5020824;28;20280;-63
2022/11/22 11:14:54;;;;;;;7.05;1.52;;;;;;;;;;5018093;28;20232;-64
2022/11/22 11:17:21;;;;;;;9.50;2.38;;;;;;;;;;5001192;28;20212;-63
2022/11/22 11:19:46;;;;;;;7.85;1.58;;;;;;;;;;5003524;28;20275;-62
2022/11/22 11:22:14;;;;;;;8.00;1.43;;;;;;;;;;5025787;28;20331;-63
2022/11/22 11:24:40;;;;;;;8.27;2.95;;;;;;;;;;5025545;28;20246;-62
2022/11/22 11:27:05;;;;;;;7.83;1.60;;;;;;;;;;5025397;28;20243;-62
2022/11/22 11:29:36;;;;;;;5.18;1.42;;;;;;;;;;5008922;28;20628;-63
2022/11/22 11:32:09;;;;;;;8.27;3.13;;;;;;;;;;5026290;28;20219;-63
2022/11/22 11:34:34;;;;;;;9.07;2.85;;;;;;;;;;5005421;28;20221;-63
2022/11/22 11:36:59;;;;;;;3.20;1.27;;;;;;;;;;5017914;28;20212;-63
2022/11/22 11:39:28;;;;;;;6.17;1.20;;;;;;;;;;5000444;28;20958;-63
2022/11/22 11:41:54;;;;;;;8.70;2.30;;;;;;;;;;5027079;28;20978;-63
2022/11/22 11:44:26;;;;;;;8.60;1.80;;;;;;;;;;5030860;28;20299;-63
2022/11/22 11:46:51;;;;;;;3.00;1.07;;;;;;;;;;5019182;28;20707;-63
2022/11/22 11:49:17;;;;;;;4.20;1.00;;;;;;;;;;5010889;28;20212;-63
2022/11/22 11:51:44;;;;;;;5.13;1.30;;;;;;;;;;5011100;28;20279;-63
2022/11/22 11:54:11;;;;;;;6.57;1.73;;;;;;;;;;5012058;28;20238;-63
2022/11/22 11:56:39;;;;;;;26.50;11.23;;;;;;;;;;5011677;28;20220;-63
2022/11/22 11:59:05;;;;;;;10.93;3.43;;;;;;;;;;5012704;28;20220;-63
2022/11/22 12:01:32;;;;;;;6.03;1.83;;;;;;;;;;5011286;28;20215;-63
2022/11/22 12:03:59;;;;;;;7.63;2.50;;;;;;;;;;5029683;28;20322;-63
2022/11/22 12:06:28;;;;;;;6.23;2.03;;;;;;;;;;5031412;28;20306;-63
2022/11/22 12:08:54;;;;;;;8.53;2.80;;;;;;;;;;5031193;28;20211;-63
2022/11/22 12:11:22;;;;;;;7.17;1.43;;;;;;;;;;5013814;28;20215;-63
2022/11/22 12:13:52;;;;;;;7.00;1.80;;;;;;;;;;5032547;28;20230;-63
2022/11/22 12:16:18;;;;;;;8.07;3.20;;;;;;;;;;5012871;28;20207;-62
2022/11/22 12:18:51;;;;;;;18.77;7.85;;;;;;;;;;5054304;28;20213;-63
2022/11/22 12:21:19;;;;;;;36.37;21.20;;;;;;;;;;5041463;28;20249;-62
2022/11/22 12:23:54;;;;;;;5.17;1.73;;;;;;;;;;5035351;28;20216;-62
2022/11/22 12:26:19;;;;;;;3.72;1.00;;;;;;;;;;5014565;28;20211;-62
2022/11/22 12:28:44;;;;;;;7.07;1.27;;;;;;;;;;5034429;28;20214;-62
2022/11/22 12:31:28;;;;;;;4.27;0.90;;;;;;;;;;5013591;28;20630;-62
2022/11/22 12:33:54;;;;;;;4.20;1.02;;;;;;;;;;5034608;28;20595;-62
2022/11/22 12:36:21;;;;;;;2.75;1.15;;;;;;;;;;5034989;28;20589;-63
2022/11/22 12:38:46;;;;;;;4.80;1.20;;;;;;;;;;5034800;28;20565;-63
2022/11/22 12:41:12;;;;;;;6.93;1.17;;;;;;;;;;5035259;28;20261;-62
2022/11/22 12:43:45;;;;;;;6.00;1.03;;;;;;;;;;5035574;28;20242;-63
2022/11/22 12:46:17;;;;;;;3.43;1.10;;;;;;;;;;5039272;28;20561;-62
2022/11/22 12:48:44;;;;;;;4.77;0.90;;;;;;;;;;5039332;28;20619;-63
2022/11/22 12:51:12;;;;;;;4.10;1.20;;;;;;;;;;5032856;28;20269;-63
2022/11/22 12:53:39;;;;;;;2.85;0.70;;;;;;;;;;5042664;28;20211;-63
2022/11/22 12:56:10;;;;;;;2.38;0.70;;;;;;;;;;5054755;28;20214;-63
2022/11/22 12:58:45;;;;;;;3.80;1.10;;;;;;;;;;5033984;28;20208;-62
2022/11/22 13:01:12;;;;;;;2.50;0.90;;;;;;;;;;5023938;28;20234;-63
2022/11/22 13:03:41;;;;;;;2.30;0.82;;;;;;;;;;5032060;28;20235;-63
2022/11/22 13:06:06;;;;;;;2.83;1.08;;;;;;;;;;5032968;28;20584;-63
2022/11/22 13:08:36;;;;;;;2.47;0.80;;;;;;;;;;5033591;28;20692;-63
2022/11/22 13:11:03;;;;;;;4.70;1.00;;;;;;;;;;5034513;28;20705;-63
2022/11/22 13:13:30;;;;;;;4.40;1.88;;;;;;;;;;5033083;28;20212;-62
2022/11/22 13:15:56;;;;;;;1.40;0.60;;;;;;;;;;5034861;28;20203;-63
2022/11/22 13:18:24;;;;;;;2.15;0.60;;;;;;;;;;5036360;28;20227;-66
2022/11/22 13:20:53;;;;;;;3.03;1.83;;;;;;;;;;5036410;28;20243;-66
2022/11/22 13:23:23;;;;;;;1.58;0.60;;;;;;;;;;5054217;28;20697;-66
2022/11/22 13:25:58;;;;;;;9.68;4.63;;;;;;;;;;5036353;28;20694;-66
2022/11/22 13:28:24;;;;;;;3.28;0.63;;;;;;;;;;5035929;28;20646;-66
2022/11/22 13:31:08;;;;;;;3.55;0.88;;;;;;;;;;5037070;28;20309;-66
2022/11/22 13:33:34;;;;;;;1.45;0.63;;;;;;;;;;5052753;28;20203;-63
2022/11/22 13:36:18;;;;;;;2.20;0.98;;;;;;;;;;5037103;28;20222;-63
2022/11/22 13:38:44;;;;;;;1.55;0.73;;;;;;;;;;5054095;28;20214;-62
2022/11/22 13:41:20;;;;;;;4.05;0.90;;;;;;;;;;5016391;28;20227;-63
2022/11/22 13:43:48;;;;;;;2.47;1.17;;;;;;;;;;5034787;28;20211;-63
2022/11/22 13:46:32;;;;;;;5.03;1.17;;;;;;;;;;5034054;28;20354;-62
2022/11/22 13:49:11;;;;;;;2.60;0.80;;;;;;;;;;5033212;28;20211;-62
2022/11/22 13:51:53;;;;;;;3.28;0.80;;;;;;;;;;5034171;28;20243;-63
2022/11/22 13:54:32;;;;;;;2.95;0.90;;;;;;;;;;5032773;28;20232;-64
2022/11/22 13:56:59;;;;;;;4.15;0.90;;;;;;;;;;5033224;28;20243;-64
2022/11/22 13:59:24;;;;;;;2.97;0.80;;;;;;;;;;5034067;28;20212;-64
2022/11/22 14:01:49;;;;;;;2.22;0.95;;;;;;;;;;5033317;28;20269;-64
2022/11/22 14:04:15;;;;;;;1.52;0.55;;;;;;;;;;5033622;28;20601;-64
2022/11/22 14:06:47;;;;;;;2.25;0.70;;;;;;;;;;5034357;28;20207;-64
2022/11/22 14:09:13;;;;;;;2.03;0.60;;;;;;;;;;5032559;28;20219;-64
2022/11/22 14:11:42;;;;;;;1.13;0.60;;;;;;;;;;5034004;28;20208;-64
2022/11/22 14:14:36;;;;;;;0.90;0.50;;;;;;;;;;5032349;28;20239;-64
2022/11/22 14:17:10;;;;;;;1.33;0.68;;;;;;;;;;5032145;28;20298;-64
2022/11/22 14:19:47;;;;;;;1.58;0.50;;;;;;;;;;5034030;28;20211;-64
2022/11/22 14:22:22;;;;;;;2.15;0.60;;;;;;;;;;5014071;28;20678;-64
2022/11/22 14:24:57;;;;;;;0.60;0.40;;;;;;;;;;5033344;28;20678;-63
2022/11/22 14:27:41;;;;;;;1.33;0.47;;;;;;;;;;5015654;28;20242;-63
2022/11/22 14:30:17;;;;;;;0.70;0.40;;;;;;;;;;5032527;28;20703;-63
2022/11/22 14:32:56;;;;;;;1.27;0.50;;;;;;;;;;5015429;28;20238;-64
2022/11/22 14:35:25;;;;;;;0.68;0.32;;;;;;;;;;5033042;28;20303;-64
2022/11/22 14:37:57;;;;;;;1.57;0.50;;;;;;;;;;5031469;28;20667;-63
2022/11/22 14:40:28;;;;;;;0.43;0.30;;;;;;;;;;5032015;28;20223;-64
2022/11/22 14:42:55;;;;;;;1.27;0.40;;;;;;;;;;5033523;28;20204;-64
2022/11/22 14:45:24;;;;;;;2.25;0.50;;;;;;;;;;5042528;28;20286;-64